sensor_id;sensor_type;location;lat;lon;timestamp;pressure;altitude;pressure_sealevel;temperature;humidity
13080;BME280;6606;49.154;9.280;2023-02-24T00:01:27;99247.34;;;10.36;100.00
13080;BME280;6606;49.154;9.280;2023-02-24T00:04:11;99247.34;;;10.36;100.00
13080;BME280;6606;49.154;9.280;2023-02-24T00:06:54;99237.78;;;10.33;100.00
13080;BME280;6606;49.154;9.280;2023-02-24T00:09:35;99234.88;;;10.38;100.00
13080;BME280;6606;49.154;9.280;2023-02-24T00:12:18;99240.25;;;10.37;100.00
13080;BME280;6606;49.154;9.280;2023-02-24T00:15:00;99246.75;;;10.31;100.00
13080;BME280;6606;49.154;9.280;2023-02-24T00:17:42;99232.81;;;10.11;100.00
13080;BME280;6606;49.154;9.280;2023-02-24T00:20:26;99225.09;;;10.07;100.00
13080;BME280;6606;49.154;9.280;2023-02-24T00:23:07;99229.19;;;10.12;100.00
13080;BME280;6606;49.154;9.280;2023-02-24T00:25:57;99226.91;;;10.06;100.00
13080;BME280;6606;49.154;9.280;2023-02-24T00:28:40;99224.75;;;9.97;100.00
13080;BME280;6606;49.154;9.280;2023-02-24T00:31:22;99218.53;;;9.98;100.00
13080;BME280;6606;49.154;9.280;2023-02-24T00:34:05;99218.00;;;10.07;100.00
13080;BME280;6606;49.154;9.280;2023-02-24T00:36:48;99211.03;;;10.06;100.00
13080;BME280;6606;49.154;9.280;2023-02-24T00:39:30;99211.78;;;10.08;100.00
13080;BME280;6606;49.154;9.280;2023-02-24T00:42:15;99213.25;;;9.98;100.00
13080;BME280;6606;49.154;9.280;2023-02-24T00:44:57;99209.41;;;10.04;100.00
13080;BME280;6606;49.154;9.280;2023-02-24T00:47:44;99201.69;;;10.15;100.00
13080;BME280;6606;49.154;9.280;2023-02-24T00:50:26;99218.44;;;10.16;100.00
13080;BME280;6606;49.154;9.280;2023-02-24T00:53:09;99215.03;;;10.13;100.00
13080;BME280;6606;49.154;9.280;2023-02-24T00:55:57;99211.78;;;10.08;100.00
13080;BME280;6606;49.154;9.280;2023-02-24T00:58:39;99214.25;;;10.11;100.00
13080;BME280;6606;49.154;9.280;2023-02-24T01:01:24;99216.06;;;9.95;100.00
13080;BME280;6606;49.154;9.280;2023-02-24T01:04:07;99212.47;;;9.96;100.00
13080;BME280;6606;49.154;9.280;2023-02-24T01:06:52;99214.03;;;10.00;100.00
13080;BME280;6606;49.154;9.280;2023-02-24T01:09:41;99208.53;;;10.03;100.00
13080;BME280;6606;49.154;9.280;2023-02-24T01:12:23;99206.63;;;10.05;100.00
13080;BME280;6606;49.154;9.280;2023-02-24T01:15:29;99205.63;;;10.08;100.00
13080;BME280;6606;49.154;9.280;2023-02-24T01:18:13;99207.59;;;10.04;100.00
13080;BME280;6606;49.154;9.280;2023-02-24T01:20:56;99199.66;;;10.04;100.00
13080;BME280;6606;49.154;9.280;2023-02-24T01:23:38;99195.03;;;10.08;100.00
13080;BME280;6606;49.154;9.280;2023-02-24T01:26:22;99195.72;;;10.11;100.00
13080;BME280;6606;49.154;9.280;2023-02-24T01:29:05;99196.81;;;10.07;100.00
13080;BME280;6606;49.154;9.280;2023-02-24T01:31:49;99193.75;;;9.99;100.00
13080;BME280;6606;49.154;9.280;2023-02-24T01:34:35;99191.88;;;10.01;100.00
13080;BME280;6606;49.154;9.280;2023-02-24T01:37:18;99186.41;;;10.04;100.00
13080;BME280;6606;49.154;9.280;2023-02-24T01:40:00;99186.41;;;10.04;100.00
13080;BME280;6606;49.154;9.280;2023-02-24T01:42:50;99182.25;;;10.00;100.00
13080;BME280;6606;49.154;9.280;2023-02-24T01:45:31;99191.09;;;9.99;100.00
13080;BME280;6606;49.154;9.280;2023-02-24T01:48:17;99177.28;;;9.94;100.00
13080;BME280;6606;49.154;9.280;2023-02-24T01:50:59;99177.44;;;9.91;100.00
13080;BME280;6606;49.154;9.280;2023-02-24T01:53:41;99171.66;;;9.84;100.00
13080;BME280;6606;49.154;9.280;2023-02-24T01:56:23;99168.91;;;9.86;100.00
13080;BME280;6606;49.154;9.280;2023-02-24T01:59:06;99161.91;;;9.85;100.00
13080;BME280;6606;49.154;9.280;2023-02-24T02:01:56;99160.00;;;9.87;100.00
13080;BME280;6606;49.154;9.280;2023-02-24T02:04:46;99143.09;;;9.74;100.00
13080;BME280;6606;49.154;9.280;2023-02-24T02:07:30;99150.13;;;9.59;100.00
13080;BME280;6606;49.154;9.280;2023-02-24T02:10:12;99141.16;;;9.61;100.00
13080;BME280;6606;49.154;9.280;2023-02-24T02:12:54;99142.63;;;9.67;100.00
13080;BME280;6606;49.154;9.280;2023-02-24T02:15:45;99148.25;;;9.61;100.00
13080;BME280;6606;49.154;9.280;2023-02-24T02:18:41;99139.00;;;9.52;100.00
13080;BME280;6606;49.154;9.280;2023-02-24T02:22:05;99131.84;;;9.54;100.00
13080;BME280;6606;49.154;9.280;2023-02-24T02:24:51;99131.66;;;9.57;100.00
13080;BME280;6606;49.154;9.280;2023-02-24T02:31:39;99121.44;;;9.51;100.00
13080;BME280;6606;49.154;9.280;2023-02-24T02:34:38;99132.50;;;9.42;100.00
13080;BME280;6606;49.154;9.280;2023-02-24T02:37:30;99127.22;;;9.42;100.00
13080;BME280;6606;49.154;9.280;2023-02-24T02:40:16;99121.91;;;9.42;100.00
13080;BME280;6606;49.154;9.280;2023-02-24T02:43:04;99127.97;;;9.28;100.00
13080;BME280;6606;49.154;9.280;2023-02-24T02:45:53;99126.94;;;9.31;100.00
13080;BME280;6606;49.154;9.280;2023-02-24T02:48:44;99112.63;;;9.35;100.00
13080;BME280;6606;49.154;9.280;2023-02-24T02:51:32;99116.91;;;9.37;100.00
13080;BME280;6606;49.154;9.280;2023-02-24T02:54:22;99124.91;;;9.36;100.00
13080;BME280;6606;49.154;9.280;2023-02-24T02:57:10;99115.09;;;9.38;100.00
13080;BME280;6606;49.154;9.280;2023-02-24T02:59:56;99102.50;;;9.43;100.00
13080;BME280;6606;49.154;9.280;2023-02-24T03:02:42;99100.00;;;9.40;100.00
13080;BME280;6606;49.154;9.280;2023-02-24T03:05:29;99099.59;;;9.32;100.00
13080;BME280;6606;49.154;9.280;2023-02-24T03:08:15;99103.91;;;9.33;100.00
13080;BME280;6606;49.154;9.280;2023-02-24T03:11:00;99107.94;;;9.24;100.00
13080;BME280;6606;49.154;9.280;2023-02-24T03:13:46;99102.19;;;9.16;100.00
13080;BME280;6606;49.154;9.280;2023-02-24T03:16:32;99108.94;;;9.21;100.00
13080;BME280;6606;49.154;9.280;2023-02-24T03:19:20;99102.97;;;9.34;100.00
13080;BME280;6606;49.154;9.280;2023-02-24T03:22:09;99107.34;;;9.35;100.00
13080;BME280;6606;49.154;9.280;2023-02-24T03:24:54;99102.50;;;9.43;100.00
13080;BME280;6606;49.154;9.280;2023-02-24T03:27:48;99104.19;;;9.44;100.00
13080;BME280;6606;49.154;9.280;2023-02-24T03:30:37;99107.66;;;9.29;100.00
13080;BME280;6606;49.154;9.280;2023-02-24T03:33:26;99104.78;;;9.33;100.00
13080;BME280;6606;49.154;9.280;2023-02-24T03:36:10;99116.81;;;9.39;100.00
13080;BME280;6606;49.154;9.280;2023-02-24T03:38:55;99098.28;;;9.39;100.00
13080;BME280;6606;49.154;9.280;2023-02-24T03:41:45;99108.78;;;9.40;100.00
13080;BME280;6606;49.154;9.280;2023-02-24T03:44:30;99102.84;;;9.37;100.00
13080;BME280;6606;49.154;9.280;2023-02-24T03:47:13;99104.28;;;9.42;100.00
13080;BME280;6606;49.154;9.280;2023-02-24T03:49:56;99096.06;;;9.47;100.00
13080;BME280;6606;49.154;9.280;2023-02-24T03:52:43;99099.75;;;9.44;100.00
13080;BME280;6606;49.154;9.280;2023-02-24T03:55:37;99096.69;;;9.52;100.00
13080;BME280;6606;49.154;9.280;2023-02-24T03:58:34;99105.38;;;9.54;100.00
13080;BME280;6606;49.154;9.280;2023-02-24T04:01:23;99097.44;;;9.54;100.00
13080;BME280;6606;49.154;9.280;2023-02-24T04:04:15;99097.63;;;9.51;100.00
13080;BME280;6606;49.154;9.280;2023-02-24T04:07:14;99093.97;;;9.54;100.00
13080;BME280;6606;49.154;9.280;2023-02-24T04:10:03;99094.31;;;9.48;100.00
13080;BME280;6606;49.154;9.280;2023-02-24T04:12:52;99084.31;;;9.37;100.00
13080;BME280;6606;49.154;9.280;2023-02-24T04:15:40;99081.81;;;9.34;100.00
13080;BME280;6606;49.154;9.280;2023-02-24T04:18:27;99081.13;;;9.30;100.00
13080;BME280;6606;49.154;9.280;2023-02-24T04:21:11;99082.75;;;9.33;100.00
13080;BME280;6606;49.154;9.280;2023-02-24T04:23:54;99088.66;;;9.38;100.00
13080;BME280;6606;49.154;9.280;2023-02-24T04:26:37;99076.22;;;9.40;100.00
13080;BME280;6606;49.154;9.280;2023-02-24T04:29:22;99070.56;;;9.46;100.00
13080;BME280;6606;49.154;9.280;2023-02-24T04:32:08;99070.41;;;9.49;100.00
13080;BME280;6606;49.154;9.280;2023-02-24T04:34:52;99069.91;;;9.42;100.00
13080;BME280;6606;49.154;9.280;2023-02-24T04:37:41;99067.06;;;9.30;100.00
13080;BME280;6606;49.154;9.280;2023-02-24T04:40:25;99064.09;;;9.36;100.00
13080;BME280;6606;49.154;9.280;2023-02-24T04:43:07;99063.72;;;9.42;100.00
13080;BME280;6606;49.154;9.280;2023-02-24T04:45:49;99053.16;;;9.42;100.00
13080;BME280;6606;49.154;9.280;2023-02-24T04:48:33;99053.59;;;9.50;100.00
13080;BME280;6606;49.154;9.280;2023-02-24T04:51:15;99040.53;;;9.47;100.00
13080;BME280;6606;49.154;9.280;2023-02-24T04:53:59;99040.72;;;9.44;100.00
13080;BME280;6606;49.154;9.280;2023-02-24T04:56:43;99039.19;;;9.40;100.00
13080;BME280;6606;49.154;9.280;2023-02-24T04:59:27;99033.72;;;9.43;100.00
13080;BME280;6606;49.154;9.280;2023-02-24T05:02:08;99026.69;;;9.42;100.00
13080;BME280;6606;49.154;9.280;2023-02-24T05:04:52;99022.97;;;9.46;100.00
13080;BME280;6606;49.154;9.280;2023-02-24T05:07:33;99018.44;;;9.48;100.00
13080;BME280;6606;49.154;9.280;2023-02-24T05:10:16;99014.97;;;9.48;100.00
13080;BME280;6606;49.154;9.280;2023-02-24T05:12:58;99012.22;;;9.49;100.00
13080;BME280;6606;49.154;9.280;2023-02-24T05:15:42;99018.03;;;9.56;100.00
13080;BME280;6606;49.154;9.280;2023-02-24T05:18:25;99011.88;;;9.55;100.00
13080;BME280;6606;49.154;9.280;2023-02-24T05:21:12;99014.25;;;9.44;100.00
13080;BME280;6606;49.154;9.280;2023-02-24T05:24:14;99006.00;;;9.50;100.00
13080;BME280;6606;49.154;9.280;2023-02-24T05:26:57;99010.34;;;9.51;100.00
13080;BME280;6606;49.154;9.280;2023-02-24T05:29:39;99009.97;;;9.57;100.00
13080;BME280;6606;49.154;9.280;2023-02-24T05:32:23;98999.56;;;9.54;100.00
13080;BME280;6606;49.154;9.280;2023-02-24T05:35:05;98996.03;;;9.39;100.00
13080;BME280;6606;49.154;9.280;2023-02-24T05:37:49;98997.78;;;9.39;100.00
13080;BME280;6606;49.154;9.280;2023-02-24T05:40:31;98999.09;;;9.32;100.00
13080;BME280;6606;49.154;9.280;2023-02-24T05:43:13;98988.41;;;9.33;100.00
13080;BME280;6606;49.154;9.280;2023-02-24T05:45:58;98988.75;;;9.43;100.00
13080;BME280;6606;49.154;9.280;2023-02-24T05:48:42;98985.94;;;9.46;100.00
13080;BME280;6606;49.154;9.280;2023-02-24T05:51:24;98986.47;;;9.37;100.00
13080;BME280;6606;49.154;9.280;2023-02-24T05:54:08;98981.19;;;9.37;100.00
13080;BME280;6606;49.154;9.280;2023-02-24T05:56:51;98977.75;;;9.35;100.00
13080;BME280;6606;49.154;9.280;2023-02-24T05:59:33;98977.59;;;9.38;100.00
13080;BME280;6606;49.154;9.280;2023-02-24T06:02:17;98976.56;;;9.40;100.00
13080;BME280;6606;49.154;9.280;2023-02-24T06:05:07;98970.75;;;9.34;100.00
13080;BME280;6606;49.154;9.280;2023-02-24T06:07:49;98970.84;;;9.32;100.00
13080;BME280;6606;49.154;9.280;2023-02-24T06:10:33;98970.31;;;9.41;100.00
13080;BME280;6606;49.154;9.280;2023-02-24T06:13:15;98978.25;;;9.41;100.00
13080;BME280;6606;49.154;9.280;2023-02-24T06:15:56;98975.03;;;9.20;100.00
13080;BME280;6606;49.154;9.280;2023-02-24T06:18:38;98971.09;;;9.28;100.00
13080;BME280;6606;49.154;9.280;2023-02-24T06:21:20;98965.81;;;9.28;100.00
13080;BME280;6606;49.154;9.280;2023-02-24T06:24:02;98969.84;;;9.35;100.00
13080;BME280;6606;49.154;9.280;2023-02-24T06:26:47;98964.78;;;9.30;100.00
13080;BME280;6606;49.154;9.280;2023-02-24T06:29:32;98971.69;;;9.33;100.00
13080;BME280;6606;49.154;9.280;2023-02-24T06:32:16;98962.56;;;9.22;100.00
13080;BME280;6606;49.154;9.280;2023-02-24T06:34:57;98966.00;;;9.24;100.00
13080;BME280;6606;49.154;9.280;2023-02-24T06:37:39;98959.56;;;9.29;100.00
13080;BME280;6606;49.154;9.280;2023-02-24T06:40:21;98952.34;;;9.32;100.00
13080;BME280;6606;49.154;9.280;2023-02-24T06:43:04;98953.44;;;9.28;100.00
13080;BME280;6606;49.154;9.280;2023-02-24T06:45:46;98953.19;;;9.17;100.00
13080;BME280;6606;49.154;9.280;2023-02-24T06:48:27;98952.34;;;9.16;100.00
13080;BME280;6606;49.154;9.280;2023-02-24T06:51:11;98948.16;;;9.12;100.00
13080;BME280;6606;49.154;9.280;2023-02-24T06:53:55;98959.00;;;9.23;100.00
13080;BME280;6606;49.154;9.280;2023-02-24T06:56:38;98954.03;;;9.17;100.00
13080;BME280;6606;49.154;9.280;2023-02-24T06:59:22;98953.13;;;9.18;100.00
13080;BME280;6606;49.154;9.280;2023-02-24T07:02:09;98958.25;;;9.06;100.00
13080;BME280;6606;49.154;9.280;2023-02-24T07:04:51;98958.50;;;9.01;100.00
13080;BME280;6606;49.154;9.280;2023-02-24T07:07:34;98961.47;;;8.95;100.00
13080;BME280;6606;49.154;9.280;2023-02-24T07:10:16;98954.59;;;9.08;100.00
13080;BME280;6606;49.154;9.280;2023-02-24T07:12:58;98946.72;;;9.07;100.00
13080;BME280;6606;49.154;9.280;2023-02-24T07:15:41;98959.34;;;9.17;100.00
13080;BME280;6606;49.154;9.280;2023-02-24T07:18:28;98956.50;;;9.20;100.00
13080;BME280;6606;49.154;9.280;2023-02-24T07:21:11;98953.97;;;9.35;100.00
13080;BME280;6606;49.154;9.280;2023-02-24T07:23:52;98951.31;;;9.35;100.00
13080;BME280;6606;49.154;9.280;2023-02-24T07:26:36;98942.63;;;9.33;100.00
13080;BME280;6606;49.154;9.280;2023-02-24T07:29:21;98940.47;;;9.55;100.00
13080;BME280;6606;49.154;9.280;2023-02-24T07:32:05;98937.47;;;9.45;100.00
13080;BME280;6606;49.154;9.280;2023-02-24T07:34:47;98935.72;;;9.60;100.00
13080;BME280;6606;49.154;9.280;2023-02-24T07:37:29;98937.25;;;9.64;100.00
13080;BME280;6606;49.154;9.280;2023-02-24T07:40:14;98937.22;;;9.50;100.00
13080;BME280;6606;49.154;9.280;2023-02-24T07:42:56;98932.53;;;9.55;100.00
13080;BME280;6606;49.154;9.280;2023-02-24T07:45:40;98942.91;;;9.58;100.00
13080;BME280;6606;49.154;9.280;2023-02-24T07:48:23;98927.03;;;9.58;100.00
13080;BME280;6606;49.154;9.280;2023-02-24T07:51:06;98921.44;;;9.49;100.00
13080;BME280;6606;49.154;9.280;2023-02-24T07:53:48;98923.13;;;9.50;100.00
13080;BME280;6606;49.154;9.280;2023-02-24T07:56:32;98923.38;;;9.61;100.00
13080;BME280;6606;49.154;9.280;2023-02-24T07:59:14;98924.97;;;9.63;100.00
13080;BME280;6606;49.154;9.280;2023-02-24T08:01:58;98922.28;;;9.49;100.00
13080;BME280;6606;49.154;9.280;2023-02-24T08:04:45;98918.53;;;9.53;100.00
13080;BME280;6606;49.154;9.280;2023-02-24T08:07:30;98924.72;;;9.52;100.00
13080;BME280;6606;49.154;9.280;2023-02-24T08:10:12;98919.56;;;9.51;100.00
13080;BME280;6606;49.154;9.280;2023-02-24T08:13:03;98919.00;;;9.60;100.00
13080;BME280;6606;49.154;9.280;2023-02-24T08:15:46;98919.69;;;9.63;100.00
13080;BME280;6606;49.154;9.280;2023-02-24T08:18:35;98914.81;;;9.86;100.00
13080;BME280;6606;49.154;9.280;2023-02-24T08:21:21;98912.94;;;9.88;100.00
13080;BME280;6606;49.154;9.280;2023-02-24T08:24:04;98913.84;;;9.73;100.00
13080;BME280;6606;49.154;9.280;2023-02-24T08:26:47;98918.84;;;9.47;100.00
13080;BME280;6606;49.154;9.280;2023-02-24T08:29:46;98914.28;;;9.35;100.00
13080;BME280;6606;49.154;9.280;2023-02-24T08:32:40;98908.19;;;9.18;100.00
13080;BME280;6606;49.154;9.280;2023-02-24T08:35:27;98910.88;;;9.33;100.00
13080;BME280;6606;49.154;9.280;2023-02-24T08:38:15;98899.31;;;9.19;100.00
13080;BME280;6606;49.154;9.280;2023-02-24T08:40:59;98906.13;;;9.23;100.00
13080;BME280;6606;49.154;9.280;2023-02-24T08:43:44;98901.13;;;9.03;100.00
13080;BME280;6606;49.154;9.280;2023-02-24T08:46:26;98892.56;;;9.30;100.00
13080;BME280;6606;49.154;9.280;2023-02-24T08:49:17;98892.84;;;9.55;100.00
13080;BME280;6606;49.154;9.280;2023-02-24T08:51:59;98899.09;;;9.38;100.00
13080;BME280;6606;49.154;9.280;2023-02-24T08:54:44;98899.94;;;9.39;100.00
13080;BME280;6606;49.154;9.280;2023-02-24T08:57:28;98895.81;;;9.19;100.00
13080;BME280;6606;49.154;9.280;2023-02-24T09:00:15;98883.19;;;9.24;100.00
13080;BME280;6606;49.154;9.280;2023-02-24T09:03:19;98893.13;;;9.35;100.00
13080;BME280;6606;49.154;9.280;2023-02-24T09:06:08;98895.72;;;9.20;100.00
13080;BME280;6606;49.154;9.280;2023-02-24T09:08:51;98890.19;;;9.09;100.00
13080;BME280;6606;49.154;9.280;2023-02-24T09:11:58;98885.31;;;9.17;100.00
13080;BME280;6606;49.154;9.280;2023-02-24T09:14:41;98889.91;;;9.30;100.00
13080;BME280;6606;49.154;9.280;2023-02-24T09:17:25;98888.19;;;9.29;100.00
13080;BME280;6606;49.154;9.280;2023-02-24T09:20:22;98885.84;;;9.24;100.00
13080;BME280;6606;49.154;9.280;2023-02-24T09:23:35;98887.19;;;9.15;100.00
13080;BME280;6606;49.154;9.280;2023-02-24T09:26:25;98883.25;;;9.22;100.00
13080;BME280;6606;49.154;9.280;2023-02-24T09:29:13;98882.34;;;9.23;100.00
13080;BME280;6606;49.154;9.280;2023-02-24T09:32:10;98876.88;;;9.27;100.00
13080;BME280;6606;49.154;9.280;2023-02-24T09:34:54;98861.63;;;9.46;100.00
13080;BME280;6606;49.154;9.280;2023-02-24T09:37:35;98861.31;;;9.66;100.00
13080;BME280;6606;49.154;9.280;2023-02-24T09:40:20;98859.22;;;9.72;100.00
13080;BME280;6606;49.154;9.280;2023-02-24T09:43:21;98846.13;;;9.99;100.00
13080;BME280;6606;49.154;9.280;2023-02-24T09:46:06;98845.00;;;10.17;100.00
13080;BME280;6606;49.154;9.280;2023-02-24T09:49:00;98847.72;;;10.16;100.00
13080;BME280;6606;49.154;9.280;2023-02-24T09:51:45;98852.66;;;9.93;100.00
13080;BME280;6606;49.154;9.280;2023-02-24T09:54:39;98858.19;;;9.74;100.00
13080;BME280;6606;49.154;9.280;2023-02-24T09:57:30;98860.63;;;9.63;100.00
13080;BME280;6606;49.154;9.280;2023-02-24T10:00:25;98848.59;;;9.57;100.00
13080;BME280;6606;49.154;9.280;2023-02-24T10:03:20;98853.94;;;9.72;100.00
13080;BME280;6606;49.154;9.280;2023-02-24T10:06:24;98845.44;;;9.66;100.00
13080;BME280;6606;49.154;9.280;2023-02-24T10:09:19;98842.00;;;9.64;100.00
13080;BME280;6606;49.154;9.280;2023-02-24T10:12:08;98833.63;;;9.72;100.00
13080;BME280;6606;49.154;9.280;2023-02-24T10:15:00;98835.03;;;9.92;100.00
13080;BME280;6606;49.154;9.280;2023-02-24T10:18:04;98827.31;;;10.03;100.00
13080;BME280;6606;49.154;9.280;2023-02-24T10:21:17;98816.91;;;10.15;100.00
13080;BME280;6606;49.154;9.280;2023-02-24T10:24:12;98813.91;;;10.35;100.00
13080;BME280;6606;49.154;9.280;2023-02-24T10:27:02;98819.06;;;10.51;100.00
13080;BME280;6606;49.154;9.280;2023-02-24T10:29:54;98827.06;;;10.64;100.00
13080;BME280;6606;49.154;9.280;2023-02-24T10:32:48;98828.75;;;11.06;100.00
13080;BME280;6606;49.154;9.280;2023-02-24T10:35:32;98803.84;;;11.09;100.00
13080;BME280;6606;49.154;9.280;2023-02-24T10:38:20;98804.19;;;11.42;100.00
13080;BME280;6606;49.154;9.280;2023-02-24T10:41:02;98808.69;;;11.55;100.00
13080;BME280;6606;49.154;9.280;2023-02-24T10:43:52;98804.91;;;11.97;100.00
13080;BME280;6606;49.154;9.280;2023-02-24T10:46:35;98800.19;;;12.26;100.00
13080;BME280;6606;49.154;9.280;2023-02-24T10:49:18;98802.69;;;12.41;100.00
13080;BME280;6606;49.154;9.280;2023-02-24T10:52:04;98796.94;;;12.47;100.00
13080;BME280;6606;49.154;9.280;2023-02-24T10:54:50;98798.38;;;12.64;100.00
13080;BME280;6606;49.154;9.280;2023-02-24T10:57:44;98795.06;;;12.36;100.00
13080;BME280;6606;49.154;9.280;2023-02-24T11:00:38;98795.97;;;12.85;100.00
13080;BME280;6606;49.154;9.280;2023-02-24T11:03:53;98788.47;;;12.42;100.00
13080;BME280;6606;49.154;9.280;2023-02-24T11:06:41;98780.16;;;12.46;100.00
13080;BME280;6606;49.154;9.280;2023-02-24T11:09:32;98778.50;;;12.57;100.00
13080;BME280;6606;49.154;9.280;2023-02-24T11:12:20;98771.41;;;12.81;100.00
13080;BME280;6606;49.154;9.280;2023-02-24T11:15:23;98768.13;;;12.77;100.00
13080;BME280;6606;49.154;9.280;2023-02-24T11:18:26;98767.06;;;12.43;100.00
13080;BME280;6606;49.154;9.280;2023-02-24T11:21:11;98760.03;;;12.55;100.00
13080;BME280;6606;49.154;9.280;2023-02-24T11:23:56;98755.31;;;12.35;100.00
13080;BME280;6606;49.154;9.280;2023-02-24T11:26:42;98750.47;;;12.16;100.00
13080;BME280;6606;49.154;9.280;2023-02-24T11:29:35;98744.31;;;12.15;100.00
13080;BME280;6606;49.154;9.280;2023-02-24T11:32:30;98737.38;;;12.25;100.00
13080;BME280;6606;49.154;9.280;2023-02-24T11:35:20;98721.41;;;12.62;100.00
13080;BME280;6606;49.154;9.280;2023-02-24T11:38:09;98715.88;;;12.65;100.00
13080;BME280;6606;49.154;9.280;2023-02-24T11:41:02;98710.94;;;12.48;100.00
13080;BME280;6606;49.154;9.280;2023-02-24T11:43:53;98708.97;;;12.39;100.00
13080;BME280;6606;49.154;9.280;2023-02-24T11:46:40;98697.06;;;12.07;100.00
13080;BME280;6606;49.154;9.280;2023-02-24T11:49:29;98693.03;;;12.02;100.00
13080;BME280;6606;49.154;9.280;2023-02-24T11:52:15;98687.56;;;12.64;100.00
13080;BME280;6606;49.154;9.280;2023-02-24T11:54:59;98676.19;;;12.86;100.00
13080;BME280;6606;49.154;9.280;2023-02-24T11:57:46;98679.69;;;12.87;100.00
13080;BME280;6606;49.154;9.280;2023-02-24T12:00:31;98669.78;;;12.89;100.00
13080;BME280;6606;49.154;9.280;2023-02-24T12:03:25;98659.19;;;12.41;100.00
13080;BME280;6606;49.154;9.280;2023-02-24T12:06:15;98648.19;;;12.69;100.00
13080;BME280;6606;49.154;9.280;2023-02-24T12:09:04;98657.69;;;12.01;100.00
13080;BME280;6606;49.154;9.280;2023-02-24T12:11:54;98653.31;;;12.24;100.00
13080;BME280;6606;49.154;9.280;2023-02-24T12:14:40;98632.75;;;12.86;100.00
13080;BME280;6606;49.154;9.280;2023-02-24T12:17:32;98621.94;;;13.00;100.00
13080;BME280;6606;49.154;9.280;2023-02-24T12:20:20;98619.44;;;13.32;100.00
13080;BME280;6606;49.154;9.280;2023-02-24T12:23:13;98600.25;;;12.71;100.00
13080;BME280;6606;49.154;9.280;2023-02-24T12:26:06;98602.81;;;12.95;100.00
13080;BME280;6606;49.154;9.280;2023-02-24T12:29:10;98595.75;;;12.60;100.00
13080;BME280;6606;49.154;9.280;2023-02-24T12:32:03;98597.94;;;12.07;100.00
13080;BME280;6606;49.154;9.280;2023-02-24T12:34:59;98603.81;;;12.23;100.00
13080;BME280;6606;49.154;9.280;2023-02-24T12:37:57;98601.97;;;12.13;100.00
13080;BME280;6606;49.154;9.280;2023-02-24T12:40:46;98604.59;;;11.88;100.00
13080;BME280;6606;49.154;9.280;2023-02-24T12:43:37;98600.16;;;11.76;100.00
13080;BME280;6606;49.154;9.280;2023-02-24T12:46:22;98597.44;;;11.65;100.00
13080;BME280;6606;49.154;9.280;2023-02-24T12:49:26;98593.44;;;11.47;100.00
13080;BME280;6606;49.154;9.280;2023-02-24T12:52:15;98583.59;;;11.73;100.00
13080;BME280;6606;49.154;9.280;2023-02-24T12:55:10;98580.72;;;12.13;100.00
13080;BME280;6606;49.154;9.280;2023-02-24T12:58:01;98572.06;;;12.68;100.00
13080;BME280;6606;49.154;9.280;2023-02-24T13:00:56;98565.09;;;13.12;100.00
13080;BME280;6606;49.154;9.280;2023-02-24T13:04:02;98552.44;;;13.05;100.00
13080;BME280;6606;49.154;9.280;2023-02-24T13:06:55;98550.97;;;13.01;100.00
13080;BME280;6606;49.154;9.280;2023-02-24T13:09:44;98552.78;;;13.11;100.00
13080;BME280;6606;49.154;9.280;2023-02-24T13:12:34;98550.13;;;13.45;100.00
13080;BME280;6606;49.154;9.280;2023-02-24T13:15:20;98537.06;;;13.31;100.00
13080;BME280;6606;49.154;9.280;2023-02-24T13:18:02;98524.94;;;13.49;100.00
13080;BME280;6606;49.154;9.280;2023-02-24T13:20:43;98519.16;;;13.33;100.00
13080;BME280;6606;49.154;9.280;2023-02-24T13:23:25;98519.59;;;12.59;100.00
13080;BME280;6606;49.154;9.280;2023-02-24T13:26:07;98511.06;;;13.12;100.00
13080;BME280;6606;49.154;9.280;2023-02-24T13:28:59;98508.19;;;13.26;100.00
13080;BME280;6606;49.154;9.280;2023-02-24T13:31:43;98501.25;;;13.12;100.00
13080;BME280;6606;49.154;9.280;2023-02-24T13:34:30;98500.91;;;12.83;100.00
13080;BME280;6606;49.154;9.280;2023-02-24T13:37:12;98504.16;;;12.64;100.00
13080;BME280;6606;49.154;9.280;2023-02-24T13:40:20;98501.72;;;12.61;100.00
13080;BME280;6606;49.154;9.280;2023-02-24T13:43:02;98501.38;;;12.54;100.00
13080;BME280;6606;49.154;9.280;2023-02-24T13:45:53;98490.16;;;12.62;100.00
13080;BME280;6606;49.154;9.280;2023-02-24T13:48:44;98494.38;;;12.76;100.00
13080;BME280;6606;49.154;9.280;2023-02-24T13:51:44;98488.34;;;13.08;100.00
13080;BME280;6606;49.154;9.280;2023-02-24T13:54:47;98483.16;;;12.84;100.00
13080;BME280;6606;49.154;9.280;2023-02-24T13:57:48;98476.88;;;12.62;100.00
13080;BME280;6606;49.154;9.280;2023-02-24T14:00:46;98476.34;;;12.91;100.00
13080;BME280;6606;49.154;9.280;2023-02-24T14:03:33;98471.06;;;12.68;100.00
13080;BME280;6606;49.154;9.280;2023-02-24T14:06:21;98464.28;;;12.42;100.00
13080;BME280;6606;49.154;9.280;2023-02-24T14:09:05;98470.69;;;12.04;100.00
13080;BME280;6606;49.154;9.280;2023-02-24T14:11:51;98456.81;;;12.00;100.00
13080;BME280;6606;49.154;9.280;2023-02-24T14:14:35;98452.41;;;12.35;100.00
13080;BME280;6606;49.154;9.280;2023-02-24T14:17:21;98442.34;;;12.16;100.00
13080;BME280;6606;49.154;9.280;2023-02-24T14:20:13;98451.66;;;12.21;100.00
13080;BME280;6606;49.154;9.280;2023-02-24T14:22:58;98447.22;;;11.86;100.00
13080;BME280;6606;49.154;9.280;2023-02-24T14:25:40;98435.91;;;11.96;100.00
13080;BME280;6606;49.154;9.280;2023-02-24T14:28:24;98429.16;;;12.03;100.00
13080;BME280;6606;49.154;9.280;2023-02-24T14:31:12;98441.00;;;11.99;100.00
13080;BME280;6606;49.154;9.280;2023-02-24T14:33:59;98424.72;;;11.79;100.00
13080;BME280;6606;49.154;9.280;2023-02-24T14:36:42;98427.09;;;11.71;100.00
13080;BME280;6606;49.154;9.280;2023-02-24T14:39:28;98429.38;;;11.64;100.00
13080;BME280;6606;49.154;9.280;2023-02-24T14:42:12;98427.66;;;11.87;100.00
13080;BME280;6606;49.154;9.280;2023-02-24T14:44:56;98427.88;;;11.84;100.00
13080;BME280;6606;49.154;9.280;2023-02-24T14:47:39;98412.75;;;11.98;100.00
13080;BME280;6606;49.154;9.280;2023-02-24T14:50:27;98414.47;;;12.10;100.00
13080;BME280;6606;49.154;9.280;2023-02-24T14:53:13;98407.41;;;11.86;100.00
13080;BME280;6606;49.154;9.280;2023-02-24T14:55:59;98409.94;;;11.88;100.00
13080;BME280;6606;49.154;9.280;2023-02-24T14:58:43;98407.28;;;11.88;100.00